createdAt,value
2019-03-28T06:10:25.264Z,31.33
2019-03-28T06:13:35.833Z,30.80
2019-03-28T06:16:06.474Z,31.17
2019-03-28T06:18:36.960Z,32.33
2019-03-28T06:21:07.426Z,32.20
2019-03-28T06:23:37.942Z,35.10
2019-03-28T06:26:08.931Z,41.77
2019-03-28T06:28:39.687Z,35.23
2019-03-28T06:31:10.711Z,32.17
2019-03-28T06:33:41.679Z,34.40
2019-03-28T06:36:12.162Z,34.70
2019-03-28T06:38:42.627Z,36.40
2019-03-28T06:41:13.151Z,35.47
2019-03-28T06:43:43.732Z,35.30
2019-03-28T06:46:14.228Z,33.13
2019-03-28T06:48:44.979Z,35.50
2019-03-28T06:51:15.479Z,41.27
2019-03-28T06:53:45.780Z,34.90
2019-03-28T06:56:16.168Z,38.67
2019-03-28T06:58:46.478Z,33.13
2019-03-28T07:01:16.786Z,38.87
2019-03-28T07:03:47.550Z,36.87
2019-03-28T07:06:18.011Z,36.98
2019-03-28T07:08:48.568Z,37.17
2019-03-28T07:11:19.086Z,32.10
2019-03-28T07:13:49.586Z,36.47
2019-03-28T07:16:21.212Z,41.33
2019-03-28T07:18:51.858Z,37.10
2019-03-28T07:21:22.365Z,38.07
2019-03-28T07:23:53.704Z,39.92
2019-03-28T07:26:24.236Z,40.33
2019-03-28T07:28:54.933Z,40.67
2019-03-28T07:31:25.470Z,37.07
2019-03-28T07:33:55.730Z,41.23
2019-03-28T07:36:27.275Z,36.43
2019-03-28T07:38:57.552Z,34.37
2019-03-28T07:41:27.920Z,37.30
2019-03-28T07:43:58.255Z,37.13
2019-03-28T07:46:29.902Z,33.93
2019-03-28T07:49:00.272Z,38.03
2019-03-28T07:51:30.909Z,37.37
2019-03-28T07:54:09.939Z,38.73
2019-03-28T07:56:40.366Z,34.63
2019-03-28T07:59:10.918Z,37.78
2019-03-28T08:01:41.297Z,38.67
2019-03-28T08:04:12.377Z,39.78
2019-03-28T08:06:49.737Z,42.27
2019-03-28T08:09:17.544Z,39.00
2019-03-28T08:11:48.312Z,37.23
2019-03-28T08:14:19.493Z,36.42
2019-03-28T08:16:50.198Z,33.20
2019-03-28T08:19:20.821Z,39.33
2019-03-28T08:21:51.129Z,38.57
2019-03-28T08:24:22.196Z,40.37
2019-03-28T08:26:53.059Z,37.15
2019-03-28T08:29:23.422Z,36.43
2019-03-28T08:31:54.425Z,38.53
2019-03-28T08:34:25.227Z,32.57
2019-03-28T08:39:57.812Z,33.23
2019-03-28T08:42:28.616Z,38.87
2019-03-28T08:44:59.146Z,33.80
2019-03-28T08:47:29.659Z,38.93
2019-03-28T08:50:00.433Z,35.30
2019-03-28T08:52:31.955Z,32.70
2019-03-28T08:55:03.846Z,36.03
2019-03-28T08:57:34.124Z,31.17
2019-03-28T09:00:05.639Z,32.50
2019-03-28T09:02:36.407Z,28.17
2019-03-28T09:05:07.552Z,28.25
2019-03-28T09:07:38.637Z,29.20
2019-03-28T09:10:10.677Z,28.50
2019-03-28T09:12:41.571Z,26.43
2019-03-28T09:15:12.308Z,27.67
2019-03-28T09:17:42.774Z,27.97
2019-03-28T09:20:14.027Z,26.73
2019-03-28T09:22:58.160Z,22.77
2019-03-28T09:25:28.559Z,21.13
2019-03-28T09:27:59.316Z,23.43
2019-03-28T09:30:48.026Z,22.70
2019-03-28T09:33:10.982Z,23.13
2019-03-28T09:35:42.183Z,24.33
2019-03-28T09:38:12.895Z,23.23
2019-03-28T09:40:43.670Z,23.40
2019-03-28T09:43:14.327Z,21.42
2019-03-28T09:45:45.624Z,20.53
2019-03-28T09:48:15.941Z,25.37
2019-03-28T09:50:46.636Z,21.60
2019-03-28T09:53:17.560Z,19.93
2019-03-28T09:55:49.264Z,20.33
2019-03-28T09:58:20.117Z,21.73
2019-03-28T10:01:02.900Z,20.83
2019-03-28T10:03:25.810Z,20.40
2019-03-28T10:05:59.404Z,19.33
2019-03-28T10:08:30.796Z,17.23
2019-03-28T10:11:02.901Z,18.23
2019-03-28T10:13:34.332Z,18.07
2019-03-28T10:16:06.702Z,19.37
2019-03-28T10:18:36.981Z,19.50
2019-03-28T10:21:08.130Z,19.00
2019-03-28T10:23:41.042Z,18.33
2019-03-28T10:26:12.478Z,17.15
2019-03-28T10:28:47.866Z,21.17
2019-03-28T10:31:28.194Z,24.33
2019-03-28T10:34:00.670Z,25.80
2019-03-28T10:36:36.841Z,27.30
2019-03-28T10:39:15.264Z,30.83
2019-03-28T10:41:59.675Z,25.87
2019-03-28T10:44:54.022Z,27.20
2019-03-28T10:47:38.015Z,25.17
2019-03-28T10:50:08.553Z,27.50
2019-03-28T10:52:45.252Z,26.57
2019-03-28T10:55:16.615Z,29.33
2019-03-28T10:57:47.093Z,23.63
2019-03-28T11:00:23.955Z,28.60
2019-03-28T11:02:50.075Z,25.20
2019-03-28T11:05:21.006Z,24.07
2019-03-28T11:07:51.630Z,27.77
2019-03-28T11:10:33.172Z,22.03
2019-03-28T11:13:03.623Z,20.20
2019-03-28T11:15:36.159Z,24.93
2019-03-28T11:18:08.278Z,21.73
2019-03-28T11:20:40.129Z,23.50
2019-03-28T11:23:13.828Z,25.30
2019-03-28T11:25:44.193Z,25.47
2019-03-28T11:28:14.570Z,24.02
2019-03-28T11:30:45.990Z,20.90
2019-03-28T11:33:16.541Z,24.98
2019-03-28T11:35:47.348Z,21.07
2019-03-28T11:38:18.162Z,26.17
2019-03-28T11:40:48.806Z,23.37
2019-03-28T11:43:19.712Z,26.63
2019-03-28T11:45:50.436Z,21.13
2019-03-28T11:48:21.826Z,23.47
2019-03-28T11:50:52.438Z,23.93
2019-03-28T11:53:23.543Z,22.83
2019-03-28T11:55:54.054Z,22.83
2019-03-28T11:58:28.591Z,25.00
2019-03-28T12:00:59.097Z,19.47
2019-03-28T12:03:29.913Z,23.63
2019-03-28T12:06:00.542Z,23.30
2019-03-28T12:08:31.921Z,21.53
2019-03-28T12:11:02.456Z,21.93
2019-03-28T12:13:44.194Z,18.27
2019-03-28T12:16:06.537Z,20.73
2019-03-28T12:18:37.111Z,20.27
2019-03-28T12:21:07.477Z,21.47
2019-03-28T12:23:40.635Z,21.70
2019-03-28T12:26:11.265Z,18.20
2019-03-28T12:28:41.674Z,21.87
2019-03-28T12:31:12.216Z,20.23
2019-03-28T12:33:42.716Z,17.93
2019-03-28T12:36:13.293Z,18.55
2019-03-28T12:38:43.759Z,22.63
2019-03-28T12:41:14.969Z,19.12
2019-03-28T12:43:45.491Z,18.37
2019-03-28T12:46:15.969Z,18.97
2019-03-28T12:48:46.498Z,17.70
2019-03-28T12:51:17.027Z,17.20
2019-03-28T12:53:47.542Z,18.33
2019-03-28T12:56:18.069Z,15.00
2019-03-28T12:58:48.838Z,17.15
2019-03-28T13:01:19.195Z,16.23
2019-03-28T13:03:49.963Z,17.30
2019-03-28T13:06:20.501Z,14.83
2019-03-28T13:08:51.292Z,15.37
2019-03-28T13:11:21.872Z,15.80
2019-03-28T13:13:52.399Z,18.70
2019-03-28T13:16:23.927Z,19.57
2019-03-28T13:18:54.362Z,17.67
2019-03-28T13:21:25.813Z,19.23
2019-03-28T13:23:56.372Z,16.83
2019-03-28T13:26:27.323Z,15.80
2019-03-28T13:28:58.132Z,19.40
2019-03-28T13:31:28.504Z,17.43
2019-03-28T13:33:59.956Z,17.20
2019-03-28T13:36:30.734Z,17.48
2019-03-28T13:39:01.830Z,14.23
2019-03-28T13:41:33.971Z,13.90
2019-03-28T13:44:04.586Z,13.83
2019-03-28T13:46:36.006Z,13.63
2019-03-28T13:49:36.538Z,16.47
2019-03-28T13:52:33.735Z,13.80
2019-03-28T13:55:57.114Z,13.90
2019-03-28T13:58:28.832Z,13.63
2019-03-28T14:01:05.684Z,16.17
2019-03-28T14:03:45.698Z,15.03
2019-03-28T14:06:17.004Z,13.83
2019-03-28T14:08:47.610Z,14.97
2019-03-28T14:11:18.187Z,14.97
2019-03-28T14:16:28.179Z,15.90
2019-03-28T14:18:59.611Z,14.33
2019-03-28T14:21:30.158Z,13.63
2019-03-28T14:24:00.717Z,12.23
2019-03-28T14:26:31.205Z,13.00
2019-03-28T14:29:01.719Z,13.50
2019-03-28T14:31:32.272Z,12.67
2019-03-28T14:34:02.887Z,14.23
2019-03-28T14:36:33.319Z,11.37
2019-03-28T14:39:18.927Z,12.73
2019-03-28T14:41:49.826Z,9.90
2019-03-28T14:44:22.172Z,10.53
2019-03-28T14:51:03.947Z,11.97
2019-03-28T14:53:38.210Z,9.40
2019-03-28T14:56:09.030Z,10.77
2019-03-28T14:58:41.446Z,10.10
2019-03-28T15:01:11.869Z,8.67
2019-03-28T15:03:42.860Z,9.67
2019-03-28T15:06:13.694Z,8.95
2019-03-28T15:08:44.070Z,9.87
2019-03-28T15:11:14.659Z,8.70
2019-03-28T15:13:45.121Z,9.67
2019-03-28T15:16:15.670Z,10.60
2019-03-28T15:18:46.976Z,9.40
2019-03-28T15:21:17.689Z,11.08
2019-03-28T15:23:48.183Z,8.80
2019-03-28T15:26:18.464Z,8.73
2019-03-28T15:28:48.921Z,9.07
2019-03-28T15:31:19.511Z,10.60
2019-03-28T15:33:50.799Z,11.47
2019-03-28T15:36:23.150Z,9.67
2019-03-28T15:38:53.190Z,8.87
2019-03-28T15:41:23.696Z,10.25
2019-03-28T15:43:54.339Z,9.53
2019-03-28T15:46:25.598Z,8.17
2019-03-28T15:48:55.911Z,6.53
2019-03-28T15:51:33.222Z,7.23
2019-03-28T15:54:03.921Z,7.57
2019-03-28T15:56:34.857Z,7.47
2019-03-28T15:59:06.298Z,8.30
2019-03-28T16:01:36.508Z,8.20
2019-03-28T16:04:07.080Z,7.03
2019-03-28T16:06:37.662Z,6.63
2019-03-28T16:09:09.088Z,7.73
2019-03-28T16:11:39.553Z,9.37
2019-03-28T16:14:11.006Z,8.27
2019-03-28T16:16:41.625Z,8.00
2019-03-28T16:19:12.087Z,7.97
2019-03-28T16:21:42.585Z,6.70
2019-03-28T16:24:12.817Z,7.37
2019-03-28T16:26:43.414Z,6.57
2019-03-28T16:29:13.883Z,7.33
2019-03-28T16:31:44.442Z,7.27
2019-03-28T16:34:14.938Z,6.97
2019-03-28T16:36:45.472Z,7.43
2019-03-28T16:39:16.076Z,7.47
2019-03-28T16:41:46.827Z,7.93
2019-03-28T16:44:17.510Z,8.50
2019-03-28T16:46:47.912Z,8.20
2019-03-28T16:49:18.533Z,8.68
2019-03-28T16:51:49.333Z,8.70
2019-03-28T16:54:19.765Z,8.25
2019-03-28T16:56:50.084Z,8.90
2019-03-28T16:59:21.448Z,8.77
2019-03-28T17:01:52.050Z,8.60
2019-03-28T17:04:23.022Z,10.53
2019-03-28T17:06:53.814Z,8.20
2019-03-28T17:09:27.044Z,10.60
2019-03-28T17:11:57.726Z,8.73
2019-03-28T17:14:27.991Z,9.53
2019-03-28T17:16:58.773Z,10.80
2019-03-28T17:19:29.373Z,9.57
2019-03-28T17:21:59.892Z,10.33
2019-03-28T17:24:30.414Z,10.67
2019-03-28T17:27:01.268Z,9.48
2019-03-28T17:29:31.492Z,10.27
2019-03-28T17:32:02.897Z,12.40
2019-03-28T17:34:36.264Z,9.73
2019-03-28T17:37:06.996Z,9.50
2019-03-28T17:39:38.200Z,12.13
2019-03-28T17:42:08.741Z,11.00
2019-03-28T17:44:40.170Z,9.07
2019-03-28T17:47:10.949Z,8.57
2019-03-28T17:49:42.169Z,14.07
2019-03-28T17:52:12.728Z,13.90
2019-03-28T17:54:44.146Z,11.80
2019-03-28T17:57:14.643Z,9.83
2019-03-28T17:59:45.452Z,8.97
2019-03-28T18:02:15.729Z,10.17
2019-03-28T18:04:48.165Z,11.27
2019-03-28T18:07:18.908Z,9.65
2019-03-28T18:09:51.037Z,10.17
2019-03-28T18:12:21.521Z,12.27
2019-03-28T18:14:52.053Z,12.47
2019-03-28T18:17:22.600Z,11.90
2019-03-28T18:19:53.102Z,11.80
2019-03-28T18:22:23.797Z,12.87
2019-03-28T18:24:54.465Z,12.80
2019-03-28T18:27:24.992Z,12.93
2019-03-28T18:29:55.554Z,12.77
2019-03-28T18:32:26.055Z,12.17
2019-03-28T18:35:05.138Z,9.80
2019-03-28T18:37:28.634Z,10.50
2019-03-28T18:39:59.433Z,11.17
2019-03-28T18:42:30.092Z,9.27
2019-03-28T18:45:00.576Z,10.83
2019-03-28T18:47:31.080Z,12.20
2019-03-28T18:50:03.374Z,10.87
2019-03-28T18:52:33.693Z,12.03
2019-03-28T18:55:04.514Z,10.50
2019-03-28T18:57:35.025Z,13.13
2019-03-28T19:00:11.141Z,12.43
2019-03-28T19:02:41.664Z,12.37
2019-03-28T19:05:19.813Z,14.25
2019-03-28T19:07:51.176Z,15.17
2019-03-28T19:10:21.582Z,17.17
2019-03-28T19:12:52.015Z,13.77
2019-03-28T19:15:23.713Z,13.07
2019-03-28T19:17:54.339Z,15.43
2019-03-28T19:20:24.928Z,14.40
2019-03-28T19:22:55.374Z,13.77
2019-03-28T19:25:26.008Z,10.70
2019-03-28T19:27:57.331Z,12.87
2019-03-28T19:36:16.614Z,11.63
2019-03-28T19:38:49.602Z,11.00
2019-03-28T19:41:21.408Z,10.50
2019-03-28T19:43:53.313Z,12.10
2019-03-28T19:46:45.382Z,13.17
